YSSYNTAA

Guest
Details From YSSY - Sydney Intl
To NTAA - Faaa
Flight Number -
Tags Generated
Created
Modified
Stats Distance 3,303 nm / 6,118 km
Max Altitude 0 ft / 0 m
Waypoints 3
Social Downloads 2
Likes 0
Share VATSIM

Download

Looking for another format? Having issues loading an existing format? Contact us
Advertisement - Login to hide

Notes

Generated

Route

YSSY OVINI NTAA

ID Type Via Altitude Latitude Longitude Leg Dist Tot Dist Heading (true) Name
O YSSY APT - 0 ft / 0 m -33.94962˚ 151.18832˚ - 0 nm - -
OVINI FIX - 0 ft / 0 m -17.68097˚ -149.78033˚ 3291 nm 3291 nm 88° / 60° -
O NTAA APT - 0 ft / 0 m -17.56288˚ -149.62043˚ 11 nm 3303 nm 52° / 52° -

Altitude Profile

Advertisement - Login to hide

Weather


0- 5 10 15 20 25 30 35+ Temperature / ° C

Clouds and Precipitation
Forecast for 2018-05-25 12:00 UTC. Updated 24 minutes ago

Ground ~20,000 ft ~40,000 ft Winds

YSSY

Details ICAO YSSY (SYD)
Name Sydney Intl
Region Australia
Timezone Australia/Sydney (UTC+10.0)
Stats Elevation 21 ft / 6 m (AMSL)
Location -33.949273° 151.181347°
Runways 3
Magnetic Variation 12.604° E

METAR

YSSY 251100Z 25005KT 230V360 9999 FEW035 BKN052 14/11 Q1029 NOSIG

Decode

TAF

TAF YSSY 250519Z 2506/2612 16012KT 9999 FEW035 FM251000 22008KT 9999 FEW035 FM251600 29008KT 9999 FEW035 FM260200 03010KT CAVOK

Decode

Departure Runways

ID Width Length Bearing (true) Bearing (mag) Surface Threshold Offset Overrun Length
07 148 ft / 45 m 8,285 ft / 2,525 m 74.13° 61.53° Asphalt 0 ft / 0 m 0 ft / 0 m
16L 148 ft / 45 m 8,018 ft / 2,444 m 167.81° 155.21° Asphalt 758 ft / 231 m 0 ft / 0 m
16R 148 ft / 45 m 13,033 ft / 3,973 m 167.86° 155.26° Asphalt 279 ft / 85 m 0 ft / 0 m
25 148 ft / 45 m 8,285 ft / 2,525 m 254.12° 241.52° Asphalt 324 ft / 99 m 0 ft / 0 m
34L 148 ft / 45 m 13,033 ft / 3,973 m 347.85° 335.25° Asphalt 0 ft / 0 m 0 ft / 0 m
34R 148 ft / 45 m 8,018 ft / 2,444 m 347.81° 335.21° Asphalt 125 ft / 38 m 0 ft / 0 m

NTAA

Details ICAO NTAA (PPT)
Name Faaa
Region French Polynesia
Timezone Pacific/Tahiti (UTC-10.0)
Stats Elevation 5 ft / 2 m (AMSL)
Location -17.553765° -149.607255°
Runways 1
Magnetic Variation 12.876° E

METAR

NTAA 251130Z VRB03KT FEW023 23/19 Q1015 NOSIG

Decode

TAF

TAF NTAA 250500Z 2506/2612 VRB05KT 9999 FEW023

Decode

Destination Runways

ID Width Length Bearing (true) Bearing (mag) Surface Threshold Offset Overrun Length
04 148 ft / 45 m 11,323 ft / 3,451 m 54.04° 41.16° Asphalt 1,099 ft / 335 m 0 ft / 0 m
22 148 ft / 45 m 11,323 ft / 3,451 m 234.03° 221.15° Asphalt 479 ft / 146 m 0 ft / 0 m

Approach Navaids

Runway Type Ident Frequency Range Bearing (true) Bearing (mag) Slope Elevation
04 Localiser PT 109.90 MHz 18 nm / 33 km 54.05° 41.18° - 20 ft / 6 m (AMSL)
04 Glidescope PT 109.90 MHz 10 nm / 19 km 54.03° 41.16° 3.00° 59 ft / 18 m (AMSL)
04 DME PT 109.90 MHz 18 nm / 33 km - - - 59 ft / 18 m (AMSL)

Popular Alternatives